sensor_id;sensor_type;location;lat;lon;timestamp;temperature;humidity
16060;DHT22;8134;49.552;7.632;2022-07-17T07:38:40;17.00;99.90
16060;DHT22;8134;49.552;7.632;2022-07-17T07:41:06;17.30;97.90
16060;DHT22;8134;49.552;7.632;2022-07-17T07:43:31;17.80;96.50
16060;DHT22;8134;49.552;7.632;2022-07-17T07:45:57;18.40;94.70
16060;DHT22;8134;49.552;7.632;2022-07-17T07:48:23;18.70;93.90
16060;DHT22;8134;49.552;7.632;2022-07-17T07:50:48;18.80;94.50
16060;DHT22;8134;49.552;7.632;2022-07-17T07:53:15;18.80;93.60
16060;DHT22;8134;49.552;7.632;2022-07-17T07:55:41;18.90;93.30
16060;DHT22;8134;49.552;7.632;2022-07-17T07:58:09;19.00;92.60
16060;DHT22;8134;49.552;7.632;2022-07-17T08:00:36;19.10;92.50
16060;DHT22;8134;49.552;7.632;2022-07-17T08:03:02;19.20;91.50
16060;DHT22;8134;49.552;7.632;2022-07-17T08:05:28;19.30;91.40
16060;DHT22;8134;49.552;7.632;2022-07-17T08:07:53;19.40;92.10
16060;DHT22;8134;49.552;7.632;2022-07-17T08:10:19;19.60;90.90
16060;DHT22;8134;49.552;7.632;2022-07-17T08:12:45;19.70;91.20
16060;DHT22;8134;49.552;7.632;2022-07-17T08:15:10;19.90;90.80
16060;DHT22;8134;49.552;7.632;2022-07-17T08:17:36;20.10;87.20
16060;DHT22;8134;49.552;7.632;2022-07-17T08:20:02;20.40;84.60
16060;DHT22;8134;49.552;7.632;2022-07-17T08:22:27;20.60;84.30
16060;DHT22;8134;49.552;7.632;2022-07-17T08:24:53;20.80;81.30
16060;DHT22;8134;49.552;7.632;2022-07-17T08:27:18;20.90;81.30
16060;DHT22;8134;49.552;7.632;2022-07-17T08:29:44;21.00;81.80
16060;DHT22;8134;49.552;7.632;2022-07-17T08:32:09;21.10;80.90
16060;DHT22;8134;49.552;7.632;2022-07-17T08:34:35;21.20;82.00
16060;DHT22;8134;49.552;7.632;2022-07-17T08:37:00;21.30;83.20
16060;DHT22;8134;49.552;7.632;2022-07-17T08:39:26;21.30;79.60
16060;DHT22;8134;49.552;7.632;2022-07-17T08:41:51;21.40;80.60
16060;DHT22;8134;49.552;7.632;2022-07-17T08:44:17;21.50;79.10
16060;DHT22;8134;49.552;7.632;2022-07-17T09:02:18;21.80;72.10
16060;DHT22;8134;49.552;7.632;2022-07-17T09:04:52;21.80;75.40
16060;DHT22;8134;49.552;7.632;2022-07-17T09:07:17;21.80;75.20
16060;DHT22;8134;49.552;7.632;2022-07-17T09:09:48;21.80;74.80
16060;DHT22;8134;49.552;7.632;2022-07-17T09:12:14;22.00;74.50
16060;DHT22;8134;49.552;7.632;2022-07-17T09:14:40;22.10;74.90
16060;DHT22;8134;49.552;7.632;2022-07-17T09:17:07;22.30;76.80
16060;DHT22;8134;49.552;7.632;2022-07-17T09:19:37;22.40;74.20
16060;DHT22;8134;49.552;7.632;2022-07-17T09:22:24;22.40;73.50
16060;DHT22;8134;49.552;7.632;2022-07-17T09:24:56;22.50;72.40
16060;DHT22;8134;49.552;7.632;2022-07-17T09:29:55;22.70;71.30
16060;DHT22;8134;49.552;7.632;2022-07-17T09:32:21;22.60;71.80
16060;DHT22;8134;49.552;7.632;2022-07-17T09:34:49;22.70;71.30
16060;DHT22;8134;49.552;7.632;2022-07-17T09:37:14;22.80;70.10
16060;DHT22;8134;49.552;7.632;2022-07-17T09:39:40;22.90;70.90
16060;DHT22;8134;49.552;7.632;2022-07-17T09:42:07;23.10;68.80
16060;DHT22;8134;49.552;7.632;2022-07-17T09:44:32;23.10;68.10
16060;DHT22;8134;49.552;7.632;2022-07-17T09:46:58;23.10;70.70
16060;DHT22;8134;49.552;7.632;2022-07-17T09:49:25;23.20;68.60
16060;DHT22;8134;49.552;7.632;2022-07-17T09:51:51;23.10;69.60
16060;DHT22;8134;49.552;7.632;2022-07-17T09:54:19;23.10;70.00
16060;DHT22;8134;49.552;7.632;2022-07-17T09:56:45;23.30;67.30
16060;DHT22;8134;49.552;7.632;2022-07-17T09:59:12;23.30;66.40
16060;DHT22;8134;49.552;7.632;2022-07-17T10:01:39;23.50;63.00
16060;DHT22;8134;49.552;7.632;2022-07-17T10:04:05;23.50;68.00
16060;DHT22;8134;49.552;7.632;2022-07-17T10:06:31;23.50;66.70
16060;DHT22;8134;49.552;7.632;2022-07-17T10:08:57;23.40;65.50
16060;DHT22;8134;49.552;7.632;2022-07-17T10:11:23;23.50;66.70
16060;DHT22;8134;49.552;7.632;2022-07-17T10:13:50;23.60;63.80
16060;DHT22;8134;49.552;7.632;2022-07-17T10:16:23;23.70;64.50
16060;DHT22;8134;49.552;7.632;2022-07-17T10:18:50;23.70;62.50
16060;DHT22;8134;49.552;7.632;2022-07-17T10:21:18;23.70;62.30
16060;DHT22;8134;49.552;7.632;2022-07-17T10:29:02;23.90;63.30
16060;DHT22;8134;49.552;7.632;2022-07-17T10:31:29;24.00;60.70
16060;DHT22;8134;49.552;7.632;2022-07-17T10:33:59;24.00;60.90
16060;DHT22;8134;49.552;7.632;2022-07-17T10:36:38;24.10;59.90
16060;DHT22;8134;49.552;7.632;2022-07-17T10:39:19;24.20;61.50
16060;DHT22;8134;49.552;7.632;2022-07-17T10:41:56;24.20;60.00
16060;DHT22;8134;49.552;7.632;2022-07-17T10:44:25;24.40;59.50
16060;DHT22;8134;49.552;7.632;2022-07-17T10:46:52;24.60;57.30
16060;DHT22;8134;49.552;7.632;2022-07-17T10:49:18;24.70;58.10
16060;DHT22;8134;49.552;7.632;2022-07-17T10:51:44;24.70;60.00
16060;DHT22;8134;49.552;7.632;2022-07-17T10:54:09;24.70;58.70
16060;DHT22;8134;49.552;7.632;2022-07-17T10:56:35;24.80;59.20
16060;DHT22;8134;49.552;7.632;2022-07-17T10:59:01;24.80;56.90
16060;DHT22;8134;49.552;7.632;2022-07-17T11:01:27;24.80;59.10
16060;DHT22;8134;49.552;7.632;2022-07-17T11:03:54;24.90;56.20
16060;DHT22;8134;49.552;7.632;2022-07-17T11:09:02;25.10;56.00
16060;DHT22;8134;49.552;7.632;2022-07-17T11:11:43;25.20;57.20
16060;DHT22;8134;49.552;7.632;2022-07-17T11:14:19;25.30;56.30
16060;DHT22;8134;49.552;7.632;2022-07-17T11:16:49;25.40;56.70
16060;DHT22;8134;49.552;7.632;2022-07-17T11:19:21;25.50;56.30
16060;DHT22;8134;49.552;7.632;2022-07-17T11:21:47;25.60;57.10
16060;DHT22;8134;49.552;7.632;2022-07-17T11:24:13;25.70;56.40
16060;DHT22;8134;49.552;7.632;2022-07-17T11:26:38;25.70;55.30
16060;DHT22;8134;49.552;7.632;2022-07-17T11:29:04;25.70;55.70
16060;DHT22;8134;49.552;7.632;2022-07-17T11:31:29;26.00;55.80
16060;DHT22;8134;49.552;7.632;2022-07-17T11:33:56;26.40;54.20
16060;DHT22;8134;49.552;7.632;2022-07-17T11:36:26;26.80;54.70
16060;DHT22;8134;49.552;7.632;2022-07-17T11:38:53;27.00;54.10
16060;DHT22;8134;49.552;7.632;2022-07-17T11:41:18;27.20;52.20
16060;DHT22;8134;49.552;7.632;2022-07-17T11:43:44;27.20;51.20
16060;DHT22;8134;49.552;7.632;2022-07-17T11:46:10;27.30;51.10
16060;DHT22;8134;49.552;7.632;2022-07-17T11:48:36;27.40;50.20
16060;DHT22;8134;49.552;7.632;2022-07-17T11:51:01;27.50;50.70
16060;DHT22;8134;49.552;7.632;2022-07-17T11:53:31;27.50;50.10
16060;DHT22;8134;49.552;7.632;2022-07-17T11:55:57;27.50;50.30
16060;DHT22;8134;49.552;7.632;2022-07-17T11:58:22;27.50;48.70
16060;DHT22;8134;49.552;7.632;2022-07-17T12:00:48;27.30;48.40
16060;DHT22;8134;49.552;7.632;2022-07-17T12:03:13;27.30;49.60
16060;DHT22;8134;49.552;7.632;2022-07-17T12:05:39;27.30;50.70
16060;DHT22;8134;49.552;7.632;2022-07-17T12:08:07;27.30;49.70
16060;DHT22;8134;49.552;7.632;2022-07-17T12:10:33;27.30;48.80
16060;DHT22;8134;49.552;7.632;2022-07-17T12:13:05;27.30;48.70
16060;DHT22;8134;49.552;7.632;2022-07-17T12:18:00;27.40;48.30
16060;DHT22;8134;49.552;7.632;2022-07-17T12:20:26;27.40;48.10
16060;DHT22;8134;49.552;7.632;2022-07-17T12:23:04;27.40;47.50
16060;DHT22;8134;49.552;7.632;2022-07-17T12:25:30;27.40;47.90
16060;DHT22;8134;49.552;7.632;2022-07-17T12:27:55;27.30;49.60
16060;DHT22;8134;49.552;7.632;2022-07-17T12:30:21;27.30;51.60
16060;DHT22;8134;49.552;7.632;2022-07-17T12:32:46;27.40;47.90
16060;DHT22;8134;49.552;7.632;2022-07-17T12:35:15;27.50;46.90
16060;DHT22;8134;49.552;7.632;2022-07-17T19:37:50;21.90;74.30
16060;DHT22;8134;49.552;7.632;2022-07-17T19:40:16;21.80;74.30
16060;DHT22;8134;49.552;7.632;2022-07-17T19:42:42;21.80;74.20
16060;DHT22;8134;49.552;7.632;2022-07-17T19:51:18;22.10;73.30
16060;DHT22;8134;49.552;7.632;2022-07-17T19:59:52;22.10;72.70
16060;DHT22;8134;49.552;7.632;2022-07-17T20:02:18;22.10;72.90
16060;DHT22;8134;49.552;7.632;2022-07-17T20:04:44;22.10;72.40
16060;DHT22;8134;49.552;7.632;2022-07-17T20:19:58;21.90;71.90
16060;DHT22;8134;49.552;7.632;2022-07-17T20:37:19;21.50;73.30
